KMMH

Mammoth Yosemite Airport

Airport
ICAO code
KMMH
Summary
ICAO Region
NAM
ICAO Territory
Location

Mammoth Lakes, California,

Coordinates
37° 37' 27" N , 118° 50' 19" W
KCC
Airport CFIT
Altimeter Temperature Error Correction
Airport RE
Hot and High Operations
Airport WX
Mountain Waves
Metar
KMMH 191215Z AUTO 33003KT 10SM CLR M02/M05 A3008 RMK AO2 T10211051

Description

Mammoth Yosemite Airport is a town-owned public-use airport located 11 km east of the central business district of Mammoth Lakes, a town in Mono County, California.

Climatology

Mammoth Lakes has a dry-summer, humid continental climate (Köppen climate classification Dsb), with long, very snowy winters and warm, dry summers. Snowfall is particularly heavy from December thru March, and averages 206 inches (5.23 m) per season.

Runways

Designator Length Width Surface Rops
9/27 2134 30 ASP Yes/Yes

Airport map

Aerial View

SKYbrary Partners:

Safety knowledge contributed by: